Time;durP1;ratioP1;P1;durP2;ratioP2;P2;SDS_P1;SDS_P2;PMS_P1;PMS_P2;Temp;Humidity;BMP_temperature;BMP_pressure;BME280_temperature;BME280_humidity;BME280_pressure;Samples;Min_cycle;Max_cycle;Signal;HPM_P1;HPM_P2
2022/04/28 00:01:14;;;;;;;8.10;1.33;;;;;;;;;;4993040;28;20044;-65
2022/04/28 00:03:40;;;;;;;9.93;0.90;;;;;;;;;;5010557;28;20582;-65
2022/04/28 00:06:06;;;;;;;9.35;1.40;;;;;;;;;;5026822;28;20411;-65
2022/04/28 00:08:33;;;;;;;8.82;0.85;;;;;;;;;;5026005;28;20049;-64
2022/04/28 00:10:59;;;;;;;9.73;1.27;;;;;;;;;;5026724;28;20095;-65
2022/04/28 00:13:27;;;;;;;8.82;1.15;;;;;;;;;;5026850;28;20507;-66
2022/04/28 00:15:54;;;;;;;6.78;1.20;;;;;;;;;;5009610;28;20044;-65
2022/04/28 00:18:21;;;;;;;4.75;0.50;;;;;;;;;;5026763;28;20168;-64
2022/04/28 00:20:47;;;;;;;9.57;1.10;;;;;;;;;;5026178;28;20043;-65
2022/04/28 00:23:13;;;;;;;5.65;0.82;;;;;;;;;;5010308;28;20479;-65
2022/04/28 00:25:39;;;;;;;6.90;1.30;;;;;;;;;;5026013;28;20052;-65
2022/04/28 00:28:05;;;;;;;7.65;1.27;;;;;;;;;;5053201;28;20041;-64
2022/04/28 00:30:31;;;;;;;9.23;1.20;;;;;;;;;;5026592;28;20064;-65
2022/04/28 00:32:57;;;;;;;7.57;1.20;;;;;;;;;;5033170;28;20103;-66
2022/04/28 00:35:23;;;;;;;7.07;1.20;;;;;;;;;;5045952;28;20060;-66
2022/04/28 00:37:49;;;;;;;6.95;0.95;;;;;;;;;;5026393;28;20135;-65
2022/04/28 00:40:15;;;;;;;9.00;1.60;;;;;;;;;;5032557;28;20472;-65
2022/04/28 00:42:42;;;;;;;5.45;1.10;;;;;;;;;;5027322;28;20046;-65
2022/04/28 00:45:08;;;;;;;12.43;1.58;;;;;;;;;;5026867;28;20088;-65
2022/04/28 00:53:05;;;;;;;8.73;1.50;;;;;;;;;;5025983;28;20515;-64
2022/04/28 00:55:32;;;;;;;8.75;1.98;;;;;;;;;;5009291;28;20049;-65
2022/04/28 00:57:58;;;;;;;11.02;1.92;;;;;;;;;;5032049;28;20033;-66
2022/04/28 01:00:25;;;;;;;10.25;1.63;;;;;;;;;;5008654;28;20134;-65
2022/04/28 01:02:51;;;;;;;7.88;1.60;;;;;;;;;;5025386;28;20048;-64
2022/04/28 01:05:17;;;;;;;8.32;1.63;;;;;;;;;;5027123;28;20052;-63
2022/04/28 01:07:43;;;;;;;11.65;1.95;;;;;;;;;;5034276;28;20044;-64
2022/04/28 01:10:09;;;;;;;10.18;1.85;;;;;;;;;;5029698;28;20041;-64
2022/04/28 01:12:36;;;;;;;7.65;2.10;;;;;;;;;;5008927;28;20048;-63
2022/04/28 01:15:02;;;;;;;9.30;1.48;;;;;;;;;;5019226;28;20052;-64
2022/04/28 01:17:28;;;;;;;10.48;2.00;;;;;;;;;;5026293;28;20436;-64
2022/04/28 01:19:54;;;;;;;6.18;1.50;;;;;;;;;;5032401;28;20942;-64
2022/04/28 01:22:20;;;;;;;7.20;1.50;;;;;;;;;;5034189;28;20049;-64
2022/04/28 01:24:46;;;;;;;7.95;1.35;;;;;;;;;;5035356;28;20048;-64
2022/04/28 01:27:13;;;;;;;8.05;1.45;;;;;;;;;;5046683;28;20103;-64
2022/04/28 01:29:40;;;;;;;7.70;1.42;;;;;;;;;;5024484;28;20486;-65
2022/04/28 01:32:06;;;;;;;9.52;2.08;;;;;;;;;;5049106;28;20073;-64
2022/04/28 01:34:32;;;;;;;8.63;1.73;;;;;;;;;;5046590;28;20037;-64
2022/04/28 01:36:58;;;;;;;10.45;2.10;;;;;;;;;;5025372;28;20135;-64
2022/04/28 01:39:24;;;;;;;6.75;1.75;;;;;;;;;;5009231;28;20353;-65
2022/04/28 01:41:50;;;;;;;12.55;1.75;;;;;;;;;;5008189;28;20040;-63
2022/04/28 01:44:17;;;;;;;13.55;2.63;;;;;;;;;;5024748;28;20033;-63
2022/04/28 01:46:43;;;;;;;9.95;2.33;;;;;;;;;;5008473;28;20053;-65
2022/04/28 01:49:09;;;;;;;7.90;1.98;;;;;;;;;;5024760;28;20045;-65
2022/04/28 01:57:05;;;;;;;11.75;2.45;;;;;;;;;;5023443;28;20041;-65
2022/04/28 01:59:31;;;;;;;6.90;2.65;;;;;;;;;;4992318;28;20049;-64
2022/04/28 02:01:57;;;;;;;9.25;2.80;;;;;;;;;;5024874;28;20100;-64
2022/04/28 02:04:23;;;;;;;9.18;2.65;;;;;;;;;;5025922;28;20582;-65
2022/04/28 02:06:49;;;;;;;10.60;2.83;;;;;;;;;;5034737;28;20172;-64
2022/04/28 02:09:15;;;;;;;6.82;2.67;;;;;;;;;;5024703;28;20434;-64
2022/04/28 02:11:41;;;;;;;11.18;2.45;;;;;;;;;;5024269;28;20049;-65
2022/04/28 02:14:07;;;;;;;9.23;2.63;;;;;;;;;;5048216;28;20039;-64
2022/04/28 02:16:33;;;;;;;7.38;2.67;;;;;;;;;;5024785;28;20399;-65
2022/04/28 02:19:00;;;;;;;8.15;2.40;;;;;;;;;;5026498;28;20046;-65
2022/04/28 02:21:26;;;;;;;7.53;2.63;;;;;;;;;;4992284;28;20038;-65
2022/04/28 02:23:52;;;;;;;8.05;2.60;;;;;;;;;;5034712;28;20081;-64
2022/04/28 02:26:18;;;;;;;15.52;2.97;;;;;;;;;;5007797;28;20045;-64
2022/04/28 02:28:44;;;;;;;10.80;2.63;;;;;;;;;;5025385;28;20051;-64
2022/04/28 02:31:10;;;;;;;7.78;2.80;;;;;;;;;;5025744;28;20448;-64
2022/04/28 02:33:36;;;;;;;9.15;2.47;;;;;;;;;;5053719;28;20103;-65
2022/04/28 02:36:03;;;;;;;7.13;2.70;;;;;;;;;;5025914;28;20048;-64
2022/04/28 02:38:29;;;;;;;7.93;2.50;;;;;;;;;;5027782;28;20041;-64
2022/04/28 02:40:55;;;;;;;9.60;2.53;;;;;;;;;;5038312;28;20087;-64
2022/04/28 02:43:22;;;;;;;9.35;2.70;;;;;;;;;;5038426;28;20103;-65
2022/04/28 02:45:49;;;;;;;10.52;3.13;;;;;;;;;;4994953;28;20127;-63
2022/04/28 02:48:16;;;;;;;14.65;3.30;;;;;;;;;;5027939;28;20053;-65
2022/04/28 02:50:42;;;;;;;7.60;2.92;;;;;;;;;;5011196;28;20045;-64
2022/04/28 02:53:08;;;;;;;12.05;3.10;;;;;;;;;;5012255;28;20052;-64
2022/04/28 02:55:35;;;;;;;10.98;2.50;;;;;;;;;;5027618;28;20133;-65
2022/04/28 02:58:01;;;;;;;11.13;3.20;;;;;;;;;;5027580;28;20055;-64
2022/04/28 03:00:28;;;;;;;5.68;2.90;;;;;;;;;;5027980;28;20116;-65
2022/04/28 03:02:54;;;;;;;10.52;3.33;;;;;;;;;;5027335;28;20103;-65
2022/04/28 03:05:20;;;;;;;7.32;2.83;;;;;;;;;;4994913;28;20042;-64
2022/04/28 03:10:51;;;;;;;10.02;2.78;;;;;;;;;;5027879;28;20624;-63
2022/04/28 03:13:18;;;;;;;13.63;3.42;;;;;;;;;;5026250;28;20064;-65
2022/04/28 03:15:48;;;;;;;11.30;3.42;;;;;;;;;;5024534;28;20511;-64
2022/04/28 03:18:15;;;;;;;8.52;3.25;;;;;;;;;;5028010;28;20034;-64
2022/04/28 03:20:41;;;;;;;10.30;3.30;;;;;;;;;;5028937;28;20052;-64
2022/04/28 03:23:11;;;;;;;9.50;3.78;;;;;;;;;;5027827;28;20041;-65
2022/04/28 03:25:38;;;;;;;11.30;3.50;;;;;;;;;;5027284;28;20041;-63
2022/04/28 03:28:04;;;;;;;11.30;3.58;;;;;;;;;;5027134;28;20052;-65
2022/04/28 03:30:31;;;;;;;9.07;3.65;;;;;;;;;;5027253;28;20041;-64
2022/04/28 03:32:58;;;;;;;11.82;4.35;;;;;;;;;;5049918;28;20065;-63
2022/04/28 03:35:24;;;;;;;11.93;4.82;;;;;;;;;;5029674;28;20049;-64
2022/04/28 03:37:50;;;;;;;13.50;4.93;;;;;;;;;;5030478;28;20399;-62
2022/04/28 03:40:17;;;;;;;13.93;5.57;;;;;;;;;;5028794;28;20057;-61
2022/04/28 03:42:44;;;;;;;13.00;4.90;;;;;;;;;;5028033;28;20053;-63
2022/04/28 03:45:10;;;;;;;18.90;5.75;;;;;;;;;;5029665;28;20075;-62
2022/04/28 03:47:37;;;;;;;10.95;5.60;;;;;;;;;;5029724;28;20148;-63
2022/04/28 03:50:04;;;;;;;17.75;4.45;;;;;;;;;;5029662;28;20037;-63
2022/04/28 03:52:30;;;;;;;12.82;3.30;;;;;;;;;;5057786;28;20045;-63
2022/04/28 03:54:56;;;;;;;14.80;3.20;;;;;;;;;;5054203;28;20041;-63
2022/04/28 03:57:22;;;;;;;14.98;3.00;;;;;;;;;;5038325;28;20038;-63
2022/04/28 03:59:48;;;;;;;18.80;2.97;;;;;;;;;;5028991;28;20049;-64
2022/04/28 04:02:14;;;;;;;12.48;2.55;;;;;;;;;;5031105;28;20037;-63
2022/04/28 04:04:40;;;;;;;12.07;2.15;;;;;;;;;;5028793;28;20046;-63
2022/04/28 04:07:07;;;;;;;10.65;2.22;;;;;;;;;;5028526;28;20079;-64
2022/04/28 04:09:33;;;;;;;11.35;2.05;;;;;;;;;;5027526;28;20064;-64
2022/04/28 04:11:59;;;;;;;14.00;1.65;;;;;;;;;;5026648;28;20037;-63
2022/04/28 04:14:25;;;;;;;13.23;1.60;;;;;;;;;;5016071;28;20495;-63
2022/04/28 04:16:51;;;;;;;13.00;1.98;;;;;;;;;;5010166;28;20072;-63
2022/04/28 04:19:17;;;;;;;11.32;2.30;;;;;;;;;;5051383;28;20132;-65
2022/04/28 04:21:44;;;;;;;12.25;1.95;;;;;;;;;;5009380;28;20076;-65
2022/04/28 04:24:10;;;;;;;13.60;1.92;;;;;;;;;;5026104;28;20033;-64
2022/04/28 04:26:36;;;;;;;8.35;2.05;;;;;;;;;;5010041;28;20048;-64
2022/04/28 04:29:02;;;;;;;11.60;1.73;;;;;;;;;;5048843;28;20483;-65
2022/04/28 04:34:30;;;;;;;10.27;1.50;;;;;;;;;;5012694;28;20080;-64
2022/04/28 04:36:56;;;;;;;11.48;1.48;;;;;;;;;;5025521;28;20100;-64
2022/04/28 04:39:22;;;;;;;8.80;1.25;;;;;;;;;;5027730;28;20049;-64
2022/04/28 04:41:48;;;;;;;11.73;1.98;;;;;;;;;;5048392;28;20111;-63
2022/04/28 04:44:15;;;;;;;6.95;1.20;;;;;;;;;;5009806;28;20038;-64
2022/04/28 04:46:41;;;;;;;12.57;1.70;;;;;;;;;;5048042;28;20400;-63
2022/04/28 04:49:08;;;;;;;12.57;2.03;;;;;;;;;;5027819;28;20033;-63
2022/04/28 04:51:35;;;;;;;14.77;1.95;;;;;;;;;;5026251;28;20080;-64
2022/04/28 04:54:01;;;;;;;10.65;1.70;;;;;;;;;;5026860;28;20124;-63
2022/04/28 04:56:27;;;;;;;11.90;1.27;;;;;;;;;;5048333;28;20049;-64
2022/04/28 04:58:53;;;;;;;10.13;1.30;;;;;;;;;;5033265;28;20114;-64
2022/04/28 05:01:19;;;;;;;11.05;1.70;;;;;;;;;;4992961;28;20483;-64
2022/04/28 05:03:45;;;;;;;9.88;1.35;;;;;;;;;;5009183;28;20049;-64
2022/04/28 05:06:11;;;;;;;11.68;1.55;;;;;;;;;;5050534;28;20050;-64
2022/04/28 05:08:37;;;;;;;8.95;1.20;;;;;;;;;;5051757;28;20044;-64
2022/04/28 05:11:04;;;;;;;16.35;1.73;;;;;;;;;;5048710;28;20046;-64
2022/04/28 05:13:30;;;;;;;10.90;1.00;;;;;;;;;;5024852;28;20045;-66
2022/04/28 05:15:56;;;;;;;10.02;1.05;;;;;;;;;;5027624;28;20403;-62
2022/04/28 05:18:22;;;;;;;7.88;1.33;;;;;;;;;;5024676;28;20129;-63
2022/04/28 05:20:50;;;;;;;9.00;0.80;;;;;;;;;;5026189;28;20103;-64
2022/04/28 05:23:16;;;;;;;12.20;1.23;;;;;;;;;;5051839;28;20096;-65
2022/04/28 05:25:43;;;;;;;7.82;0.77;;;;;;;;;;5023257;28;20124;-64
2022/04/28 05:28:09;;;;;;;8.00;0.68;;;;;;;;;;5032047;28;20373;-65
2022/04/28 05:30:35;;;;;;;10.38;1.13;;;;;;;;;;5027281;28;20045;-64
2022/04/28 05:33:01;;;;;;;8.32;0.82;;;;;;;;;;5008934;28;20515;-64
2022/04/28 05:35:27;;;;;;;9.18;1.00;;;;;;;;;;5026217;28;20500;-64
2022/04/28 05:37:53;;;;;;;6.20;1.00;;;;;;;;;;5010353;28;20049;-64
2022/04/28 05:40:19;;;;;;;9.70;0.60;;;;;;;;;;5026003;28;20383;-64
2022/04/28 05:45:43;;;;;;;6.47;0.77;;;;;;;;;;5038191;28;20093;-64
2022/04/28 05:48:17;;;;;;;10.20;0.77;;;;;;;;;;5035327;28;20446;-64
2022/04/28 05:50:43;;;;;;;;;;;;;;;;;;5026625;28;20514;-64
2022/04/28 05:53:09;;;;;;;8.05;0.70;;;;;;;;;;5023893;28;19992;-64
2022/04/28 05:55:36;;;;;;;8.82;0.68;;;;;;;;;;5025048;28;20037;-63
2022/04/28 05:58:02;;;;;;;10.43;1.23;;;;;;;;;;5008812;28;20156;-63
2022/04/28 06:00:28;;;;;;;6.18;0.60;;;;;;;;;;5025803;28;20041;-63
2022/04/28 06:02:55;;;;;;;8.63;0.90;;;;;;;;;;5025416;28;20562;-63
2022/04/28 06:05:21;;;;;;;6.43;0.70;;;;;;;;;;5055008;28;20498;-65
2022/04/28 06:07:47;;;;;;;9.32;0.82;;;;;;;;;;5027964;28;20037;-64
2022/04/28 06:10:14;;;;;;;6.72;0.57;;;;;;;;;;5055506;28;20041;-64
2022/04/28 06:12:43;;;;;;;6.65;0.70;;;;;;;;;;5029223;28;20487;-64
2022/04/28 06:15:09;;;;;;;10.65;0.77;;;;;;;;;;5030807;28;20387;-65
2022/04/28 06:17:36;;;;;;;9.25;1.10;;;;;;;;;;5030079;28;20104;-63
2022/04/28 06:20:02;;;;;;;8.27;0.90;;;;;;;;;;5032675;28;20038;-63
2022/04/28 06:22:28;;;;;;;8.48;0.65;;;;;;;;;;5031931;28;20051;-63
2022/04/28 06:24:55;;;;;;;7.35;0.75;;;;;;;;;;5030410;28;20037;-65
2022/04/28 06:27:21;;;;;;;9.30;0.90;;;;;;;;;;5015538;28;20116;-63
2022/04/28 06:29:49;;;;;;;6.30;0.80;;;;;;;;;;4998337;28;20044;-63
2022/04/28 06:32:18;;;;;;;8.20;0.80;;;;;;;;;;5030149;28;20053;-62
2022/04/28 06:34:44;;;;;;;8.85;0.63;;;;;;;;;;5038102;28;20048;-62
2022/04/28 06:37:16;;;;;;;6.85;1.10;;;;;;;;;;5054928;28;20076;-65
2022/04/28 06:39:43;;;;;;;7.72;0.70;;;;;;;;;;5052284;28;20511;-64
2022/04/28 06:42:09;;;;;;;8.95;0.57;;;;;;;;;;5030554;28;20077;-64
2022/04/28 06:44:36;;;;;;;9.18;0.90;;;;;;;;;;5012272;28;20455;-64
2022/04/28 06:47:05;;;;;;;7.50;0.70;;;;;;;;;;4996115;28;20056;-64
2022/04/28 06:49:33;;;;;;;8.77;0.68;;;;;;;;;;5044750;28;20575;-63
2022/04/28 06:51:59;;;;;;;10.00;0.73;;;;;;;;;;5028652;28;20041;-63
2022/04/28 06:54:25;;;;;;;5.93;0.70;;;;;;;;;;5029469;28;20926;-66
2022/04/28 06:56:51;;;;;;;4.85;0.80;;;;;;;;;;5029663;28;20529;-63
2022/04/28 06:59:17;;;;;;;9.65;0.70;;;;;;;;;;5054176;28;20066;-63
2022/04/28 07:01:43;;;;;;;9.85;0.90;;;;;;;;;;5029895;28;20032;-64
2022/04/28 07:04:10;;;;;;;7.97;0.63;;;;;;;;;;5030000;28;20403;-63
2022/04/28 07:06:36;;;;;;;9.02;0.90;;;;;;;;;;5050549;28;20049;-64
2022/04/28 07:09:02;;;;;;;11.90;0.90;;;;;;;;;;5040517;28;20052;-63
2022/04/28 07:11:28;;;;;;;9.02;0.80;;;;;;;;;;4996108;28;20132;-62
2022/04/28 07:13:54;;;;;;;9.82;0.90;;;;;;;;;;5053837;28;20470;-62
2022/04/28 07:16:20;;;;;;;10.25;0.82;;;;;;;;;;5038959;28;20115;-63
2022/04/28 07:18:46;;;;;;;7.45;1.40;;;;;;;;;;5052645;28;20040;-64
2022/04/28 07:21:13;;;;;;;9.50;0.98;;;;;;;;;;5028875;28;20041;-63
2022/04/28 07:23:39;;;;;;;10.90;0.90;;;;;;;;;;4996925;28;20033;-63
2022/04/28 07:26:05;;;;;;;8.68;0.70;;;;;;;;;;5029060;28;20495;-64
2022/04/28 07:28:31;;;;;;;7.07;0.50;;;;;;;;;;5036847;28;20539;-63
2022/04/28 07:30:57;;;;;;;8.52;0.90;;;;;;;;;;5057406;28;20053;-66
2022/04/28 07:33:23;;;;;;;5.90;0.70;;;;;;;;;;5011812;28;20042;-64
2022/04/28 07:35:49;;;;;;;4.07;0.50;;;;;;;;;;5029460;28;20038;-65
2022/04/28 07:38:15;;;;;;;10.98;0.90;;;;;;;;;;5034120;28;20041;-64
2022/04/28 07:40:41;;;;;;;10.15;1.08;;;;;;;;;;5026353;28;20476;-65
2022/04/28 07:43:07;;;;;;;12.30;1.35;;;;;;;;;;5029096;28;20045;-64
2022/04/28 07:45:35;;;;;;;9.60;1.27;;;;;;;;;;5011990;28;20061;-65
2022/04/28 07:48:01;;;;;;;14.15;1.63;;;;;;;;;;5027914;28;20049;-66
2022/04/28 07:50:30;;;;;;;12.52;1.95;;;;;;;;;;5027467;28;20060;-65
2022/04/28 07:52:57;;;;;;;10.50;1.20;;;;;;;;;;5036013;28;20041;-65
2022/04/28 07:55:23;;;;;;;9.13;1.40;;;;;;;;;;5027736;28;20120;-65
2022/04/28 07:57:49;;;;;;;11.13;1.90;;;;;;;;;;5025275;28;20045;-65
2022/04/28 08:00:15;;;;;;;10.18;1.52;;;;;;;;;;5050144;28;20087;-66
2022/04/28 08:02:41;;;;;;;9.98;1.60;;;;;;;;;;5057769;28;20442;-65
2022/04/28 08:05:08;;;;;;;9.30;1.38;;;;;;;;;;5035510;28;20041;-66
2022/04/28 08:07:34;;;;;;;10.27;1.40;;;;;;;;;;5036626;28;20046;-66
2022/04/28 08:10:01;;;;;;;10.27;1.63;;;;;;;;;;5027969;28;20040;-65
2022/04/28 08:12:27;;;;;;;10.48;1.35;;;;;;;;;;5026214;28;20069;-65
2022/04/28 08:14:54;;;;;;;12.43;1.52;;;;;;;;;;5009484;28;20046;-66
2022/04/28 08:17:20;;;;;;;9.48;1.77;;;;;;;;;;5024706;28;20029;-65
2022/04/28 08:19:46;;;;;;;14.02;2.05;;;;;;;;;;5026242;28;20068;-65
2022/04/28 08:22:12;;;;;;;14.75;1.90;;;;;;;;;;5027828;28;20053;-66
2022/04/28 08:24:38;;;;;;;12.35;1.60;;;;;;;;;;5025803;28;20487;-65
2022/04/28 08:27:05;;;;;;;11.15;1.33;;;;;;;;;;5023554;28;20045;-65
2022/04/28 08:29:31;;;;;;;7.47;1.10;;;;;;;;;;5055064;28;20052;-66
2022/04/28 08:31:57;;;;;;;11.93;1.30;;;;;;;;;;5026773;28;20045;-64
2022/04/28 08:34:23;;;;;;;7.55;1.15;;;;;;;;;;5026859;28;20574;-64
2022/04/28 08:36:50;;;;;;;12.93;1.65;;;;;;;;;;5028197;28;20065;-65
2022/04/28 08:39:16;;;;;;;12.85;1.63;;;;;;;;;;5009783;28;20068;-65
2022/04/28 08:41:47;;;;;;;11.10;1.52;;;;;;;;;;5025805;28;20483;-63
2022/04/28 08:44:17;;;;;;;12.15;1.55;;;;;;;;;;5050129;28;20082;-64
2022/04/28 08:46:53;;;;;;;12.40;1.50;;;;;;;;;;5035810;28;20195;-64
2022/04/28 08:49:20;;;;;;;11.43;1.40;;;;;;;;;;5040306;28;20041;-63
2022/04/28 08:51:47;;;;;;;12.73;1.80;;;;;;;;;;5030239;28;20076;-64
2022/04/28 08:54:13;;;;;;;10.63;1.20;;;;;;;;;;5027752;28;20518;-64
2022/04/28 08:56:39;;;;;;;12.68;2.22;;;;;;;;;;5029521;28;20037;-64
2022/04/28 08:59:06;;;;;;;8.82;1.08;;;;;;;;;;5036010;28;20087;-65
2022/04/28 09:01:32;;;;;;;8.57;1.00;;;;;;;;;;5028098;28;20494;-64
2022/04/28 09:03:59;;;;;;;15.75;1.65;;;;;;;;;;5027909;28;20626;-64
2022/04/28 09:06:29;;;;;;;10.63;1.13;;;;;;;;;;5029475;28;20060;-63
2022/04/28 09:08:56;;;;;;;10.13;1.08;;;;;;;;;;5028549;28;20487;-64
2022/04/28 09:11:27;;;;;;;13.60;1.25;;;;;;;;;;5028044;28;20041;-63
2022/04/28 09:14:09;;;;;;;12.93;1.25;;;;;;;;;;5027727;28;20048;-64
2022/04/28 09:16:36;;;;;;;7.40;1.08;;;;;;;;;;5052397;28;20042;-63
2022/04/28 09:19:02;;;;;;;11.02;1.75;;;;;;;;;;5034790;28;20034;-64
2022/04/28 09:21:30;;;;;;;11.32;1.45;;;;;;;;;;5024972;28;20582;-65
2022/04/28 09:23:56;;;;;;;11.13;1.20;;;;;;;;;;5024290;28;20363;-65
2022/04/28 09:26:25;;;;;;;11.10;1.23;;;;;;;;;;5051157;28;20045;-64
2022/04/28 09:28:53;;;;;;;13.77;1.40;;;;;;;;;;5010114;28;20443;-65
2022/04/28 09:31:20;;;;;;;12.45;1.33;;;;;;;;;;5036615;28;20052;-65
2022/04/28 09:33:47;;;;;;;8.75;1.50;;;;;;;;;;5025286;28;20045;-64
2022/04/28 09:36:14;;;;;;;13.50;1.17;;;;;;;;;;5025411;28;20117;-66
2022/04/28 09:38:40;;;;;;;10.13;1.05;;;;;;;;;;5019186;28;20426;-66
2022/04/28 09:43:56;;;;;;;13.23;1.67;;;;;;;;;;5029705;28;20095;-66
2022/04/28 09:46:23;;;;;;;10.50;1.20;;;;;;;;;;5010185;28;20054;-66
2022/04/28 09:48:50;;;;;;;22.00;1.58;;;;;;;;;;5047696;28;20634;-65
2022/04/28 09:51:21;;;;;;;12.75;1.20;;;;;;;;;;5021363;28;20084;-65
2022/04/28 09:53:48;;;;;;;12.15;1.00;;;;;;;;;;5042486;28;20092;-65
2022/04/28 09:56:16;;;;;;;10.38;1.02;;;;;;;;;;5026098;28;20404;-65
2022/04/28 09:58:42;;;;;;;10.32;1.05;;;;;;;;;;5019433;28;20396;-65
2022/04/28 10:01:09;;;;;;;8.20;0.93;;;;;;;;;;5008763;28;20033;-66
2022/04/28 10:03:37;;;;;;;9.52;1.30;;;;;;;;;;5050536;28;20519;-66
2022/04/28 10:06:05;;;;;;;10.20;0.95;;;;;;;;;;5025549;28;20060;-66
2022/04/28 10:08:33;;;;;;;11.88;1.50;;;;;;;;;;5049252;28;20491;-66
2022/04/28 10:11:00;;;;;;;8.43;0.90;;;;;;;;;;5049816;28;20053;-67
2022/04/28 10:13:28;;;;;;;9.57;1.10;;;;;;;;;;5008422;28;20491;-66
2022/04/28 10:15:56;;;;;;;13.45;1.25;;;;;;;;;;5041047;28;20079;-66
2022/04/28 10:18:30;;;;;;;10.32;1.17;;;;;;;;;;5007557;28;20053;-66
2022/04/28 10:21:00;;;;;;;9.10;1.13;;;;;;;;;;5049169;28;20034;-66
2022/04/28 10:32:38;;;;;;;6.53;0.90;;;;;;;;;;5028453;28;20054;-65
2022/04/28 10:35:08;;;;;;;10.77;0.90;;;;;;;;;;5015429;28;20128;-66
2022/04/28 10:37:35;;;;;;;13.05;1.15;;;;;;;;;;5024287;28;20037;-66
2022/04/28 10:40:02;;;;;;;9.45;0.90;;;;;;;;;;5051180;28;20159;-65
2022/04/28 10:42:28;;;;;;;10.98;1.17;;;;;;;;;;5024183;28;20099;-65
2022/04/28 10:44:55;;;;;;;8.32;1.10;;;;;;;;;;5024958;28;20044;-65
2022/04/28 10:47:22;;;;;;;9.50;1.55;;;;;;;;;;5024525;28;20053;-65
2022/04/28 10:49:55;;;;;;;8.43;0.82;;;;;;;;;;5025002;28;20048;-65
2022/04/28 10:52:23;;;;;;;14.93;1.40;;;;;;;;;;5010632;28;20534;-67
2022/04/28 10:54:59;;;;;;;6.43;0.80;;;;;;;;;;5030361;28;20287;-66
2022/04/28 10:57:30;;;;;;;12.32;0.95;;;;;;;;;;5030443;28;20045;-65
2022/04/28 10:59:56;;;;;;;9.02;0.75;;;;;;;;;;5035174;28;20053;-66
2022/04/28 11:02:23;;;;;;;8.73;0.98;;;;;;;;;;5029411;28;20404;-66
2022/04/28 11:04:55;;;;;;;10.18;1.00;;;;;;;;;;5025506;28;20037;-66
2022/04/28 11:07:25;;;;;;;10.82;0.90;;;;;;;;;;5051411;28;20042;-66
2022/04/28 11:09:55;;;;;;;10.35;0.90;;;;;;;;;;5029722;28;20065;-65
2022/04/28 11:12:24;;;;;;;11.63;1.48;;;;;;;;;;5029604;28;20487;-65
2022/04/28 11:15:02;;;;;;;10.10;1.10;;;;;;;;;;5052332;28;20046;-65
2022/04/28 11:17:29;;;;;;;10.70;1.33;;;;;;;;;;5034508;28;20463;-65
2022/04/28 11:19:55;;;;;;;12.88;1.17;;;;;;;;;;5033322;28;20049;-66
2022/04/28 11:22:22;;;;;;;13.63;1.77;;;;;;;;;;5027966;28;20415;-66
2022/04/28 11:24:49;;;;;;;11.07;1.05;;;;;;;;;;5029683;28;20490;-66
2022/04/28 11:27:18;;;;;;;8.93;0.57;;;;;;;;;;5033944;28;20474;-65
2022/04/28 11:29:44;;;;;;;9.00;1.10;;;;;;;;;;5028204;28;20036;-65
2022/04/28 11:32:14;;;;;;;8.48;0.63;;;;;;;;;;5026010;28;20035;-65
2022/04/28 11:34:42;;;;;;;10.82;0.77;;;;;;;;;;5050478;28;20030;-65
2022/04/28 11:37:15;;;;;;;7.63;0.90;;;;;;;;;;5029399;28;20041;-66
2022/04/28 11:39:41;;;;;;;;;;;;;;;;;;5029060;28;20144;-66
2022/04/28 11:42:16;;;;;;;7.55;0.85;;;;;;;;;;5032106;28;20020;-66
2022/04/28 11:44:53;;;;;;;9.48;1.27;;;;;;;;;;5029780;28;20547;-66
2022/04/28 11:47:23;;;;;;;10.15;0.70;;;;;;;;;;5027976;28;20060;-65
2022/04/28 11:49:50;;;;;;;9.52;0.70;;;;;;;;;;5026559;28;20060;-66
2022/04/28 11:52:26;;;;;;;16.08;0.98;;;;;;;;;;5029450;28;20471;-65
2022/04/28 11:54:57;;;;;;;11.13;0.95;;;;;;;;;;5027307;28;20041;-65
2022/04/28 11:57:23;;;;;;;7.00;0.70;;;;;;;;;;5028550;28;20052;-66
2022/04/28 11:59:51;;;;;;;7.80;0.80;;;;;;;;;;5027286;28;20041;-66
2022/04/28 12:02:23;;;;;;;8.32;1.00;;;;;;;;;;5028596;28;20048;-67
2022/04/28 12:04:49;;;;;;;8.40;1.00;;;;;;;;;;5026651;28;20098;-65
2022/04/28 12:07:20;;;;;;;11.98;0.85;;;;;;;;;;5025576;28;20049;-64
2022/04/28 12:15:18;;;;;;;8.90;0.80;;;;;;;;;;5048133;28;20040;-65
2022/04/28 12:20:53;;;;;;;8.30;0.60;;;;;;;;;;5050691;28;20049;-64
2022/04/28 12:23:28;;;;;;;12.90;0.95;;;;;;;;;;5010690;28;20044;-65
2022/04/28 12:25:58;;;;;;;8.75;0.60;;;;;;;;;;5033412;28;20037;-67
2022/04/28 12:28:29;;;;;;;7.13;0.60;;;;;;;;;;5010441;28;20094;-67
2022/04/28 12:30:56;;;;;;;4.85;0.47;;;;;;;;;;5024981;28;20049;-67
2022/04/28 12:33:22;;;;;;;6.97;0.60;;;;;;;;;;5036276;28;20048;-66
2022/04/28 12:35:49;;;;;;;10.88;1.25;;;;;;;;;;5026351;28;20514;-66
2022/04/28 12:38:23;;;;;;;5.72;0.70;;;;;;;;;;5027813;28;20467;-67
2022/04/28 12:40:50;;;;;;;7.05;0.77;;;;;;;;;;5024908;28;20131;-65
2022/04/28 12:43:35;;;;;;;8.75;0.80;;;;;;;;;;5052378;28;20045;-66
2022/04/28 12:46:01;;;;;;;10.70;0.77;;;;;;;;;;5026215;28;20080;-65
2022/04/28 12:48:27;;;;;;;8.80;0.60;;;;;;;;;;5049728;28;20447;-65
2022/04/28 12:51:11;;;;;;;6.97;0.60;;;;;;;;;;5026094;28;20053;-65
2022/04/28 12:53:38;;;;;;;6.07;0.47;;;;;;;;;;5058019;28;20117;-67
2022/04/28 12:56:06;;;;;;;6.95;0.70;;;;;;;;;;5025943;28;20095;-65
2022/04/28 12:58:36;;;;;;;8.85;0.90;;;;;;;;;;5026385;28;20041;-65
2022/04/28 13:01:02;;;;;;;7.68;0.80;;;;;;;;;;5026527;28;21338;-66
2022/04/28 13:03:29;;;;;;;6.00;0.88;;;;;;;;;;5026186;28;20049;-66
2022/04/28 13:05:56;;;;;;;8.93;0.90;;;;;;;;;;5052116;28;20046;-65
2022/04/28 13:08:22;;;;;;;7.72;0.73;;;;;;;;;;5051297;28;20037;-65
2022/04/28 13:10:48;;;;;;;10.30;0.95;;;;;;;;;;5027047;28;20402;-66
2022/04/28 13:13:14;;;;;;;7.95;0.60;;;;;;;;;;5059237;28;20107;-67
2022/04/28 13:15:40;;;;;;;4.95;0.60;;;;;;;;;;5027902;28;20033;-66
2022/04/28 13:18:07;;;;;;;7.03;0.70;;;;;;;;;;5027009;28;20048;-66
2022/04/28 13:20:33;;;;;;;6.18;0.60;;;;;;;;;;5059215;28;20116;-66
2022/04/28 13:22:59;;;;;;;8.95;0.60;;;;;;;;;;5028455;28;20033;-65
2022/04/28 13:25:25;;;;;;;6.65;0.80;;;;;;;;;;5058394;28;20480;-65
2022/04/28 13:27:51;;;;;;;7.32;1.05;;;;;;;;;;5027682;28;20087;-65
2022/04/28 13:30:17;;;;;;;6.85;0.82;;;;;;;;;;5026963;28;20558;-64
2022/04/28 13:32:43;;;;;;;9.45;0.85;;;;;;;;;;5028292;28;20052;-65
2022/04/28 13:35:09;;;;;;;10.77;1.45;;;;;;;;;;5028425;28;20037;-65
2022/04/28 13:37:36;;;;;;;12.55;1.73;;;;;;;;;;5026459;28;20041;-64
2022/04/28 13:40:02;;;;;;;9.68;1.13;;;;;;;;;;5025775;28;20041;-65
2022/04/28 13:42:29;;;;;;;9.05;1.25;;;;;;;;;;5010244;28;20132;-64
2022/04/28 13:44:56;;;;;;;7.45;0.70;;;;;;;;;;5028107;28;20049;-65
2022/04/28 13:47:27;;;;;;;9.85;0.70;;;;;;;;;;5027939;28;20061;-65
2022/04/28 13:49:55;;;;;;;8.07;0.60;;;;;;;;;;5024275;28;20037;-65
2022/04/28 13:52:22;;;;;;;7.50;0.82;;;;;;;;;;5028379;28;20087;-64
2022/04/28 13:54:48;;;;;;;8.70;0.70;;;;;;;;;;5026570;28;20068;-65
2022/04/28 13:57:14;;;;;;;5.97;0.57;;;;;;;;;;5027621;28;20395;-65
2022/04/28 13:59:40;;;;;;;8.30;0.60;;;;;;;;;;5025847;28;20505;-64
2022/04/28 14:02:07;;;;;;;5.82;0.60;;;;;;;;;;5026499;28;20048;-64
2022/04/28 14:04:34;;;;;;;7.85;0.60;;;;;;;;;;5032935;28;20468;-65
2022/04/28 14:07:00;;;;;;;8.85;0.75;;;;;;;;;;5060904;28;20056;-65
2022/04/28 14:09:27;;;;;;;5.50;0.50;;;;;;;;;;5026985;28;20446;-65
2022/04/28 14:11:55;;;;;;;11.20;0.70;;;;;;;;;;5012100;28;20399;-65
2022/04/28 14:14:22;;;;;;;6.43;0.50;;;;;;;;;;5060811;28;20052;-66
2022/04/28 14:16:48;;;;;;;7.93;1.80;;;;;;;;;;5027965;28;20510;-65
2022/04/28 14:19:16;;;;;;;5.93;0.68;;;;;;;;;;5049778;28;20076;-65
2022/04/28 14:21:43;;;;;;;9.75;1.30;;;;;;;;;;5011184;28;20120;-65
2022/04/28 14:24:09;;;;;;;10.73;1.13;;;;;;;;;;5025385;28;20410;-64
2022/04/28 14:26:35;;;;;;;9.45;0.73;;;;;;;;;;5027422;28;20037;-65
2022/04/28 14:29:03;;;;;;;32.38;1.67;;;;;;;;;;5029420;28;20041;-65
2022/04/28 14:31:31;;;;;;;13.90;1.10;;;;;;;;;;5056970;28;20072;-65
2022/04/28 14:33:57;;;;;;;7.40;1.17;;;;;;;;;;5051757;28;20558;-64
2022/04/28 14:36:23;;;;;;;10.38;1.30;;;;;;;;;;5029629;28;20053;-65
2022/04/28 14:38:50;;;;;;;7.47;0.60;;;;;;;;;;5030260;28;20041;-64
2022/04/28 14:41:16;;;;;;;6.63;0.88;;;;;;;;;;5019685;28;20047;-64
2022/04/28 14:43:42;;;;;;;6.82;0.50;;;;;;;;;;5053490;28;20155;-64
2022/04/28 14:46:08;;;;;;;8.48;0.50;;;;;;;;;;5030353;28;20056;-65
2022/04/28 14:52:19;;;;;;;7.50;0.75;;;;;;;;;;5030540;28;20152;-65
2022/04/28 14:54:05;;;;;;;7.63;0.80;;;;;;;;;;5039501;28;20048;-65
2022/04/28 14:56:31;;;;;;;4.05;0.52;;;;;;;;;;5013477;28;20496;-64
2022/04/28 14:58:57;;;;;;;5.47;0.52;;;;;;;;;;5030306;28;20128;-65
2022/04/28 15:01:23;;;;;;;5.03;0.50;;;;;;;;;;5028825;28;20116;-65
2022/04/28 15:03:49;;;;;;;5.85;0.60;;;;;;;;;;5011529;28;20045;-64
2022/04/28 15:06:15;;;;;;;8.13;0.50;;;;;;;;;;5029059;28;20045;-65
2022/04/28 15:08:42;;;;;;;6.20;0.60;;;;;;;;;;5031871;28;20041;-64
2022/04/28 15:11:08;;;;;;;9.68;0.60;;;;;;;;;;5052863;28;20049;-64
2022/04/28 15:13:35;;;;;;;7.68;0.70;;;;;;;;;;5038742;28;20049;-65
2022/04/28 15:16:01;;;;;;;7.40;0.50;;;;;;;;;;5028882;28;20423;-65
2022/04/28 15:18:28;;;;;;;7.90;0.70;;;;;;;;;;5029950;28;20033;-64
2022/04/28 15:20:54;;;;;;;9.65;0.98;;;;;;;;;;5026944;28;20103;-65